Time;durP1;ratioP1;P1;durP2;ratioP2;P2;SDS_P1;SDS_P2;PMS_P1;PMS_P2;Temp;Humidity;BMP_temperature;BMP_pressure;BME280_temperature;BME280_humidity;BME280_pressure;Samples;Min_cycle;Max_cycle;Signal;HPM_P1;HPM_P2
2021/09/25 00:00:39;;;;;;;26.00;23.23;;;20.10;66.10;;;;;;4970953;28;20046;-65
2021/09/25 00:03:05;;;;;;;28.02;23.88;;;20.10;66.70;;;;;;4973427;28;20037;-65
2021/09/25 00:05:34;;;;;;;28.45;23.85;;;20.10;67.20;;;;;;4973233;28;20042;-65
2021/09/25 00:08:02;;;;;;;25.58;22.77;;;20.10;67.50;;;;;;4973964;28;20115;-64
2021/09/25 00:10:28;;;;;;;26.10;23.02;;;20.20;70.50;;;;;;4972785;28;20034;-65
2021/09/25 00:12:54;;;;;;;31.63;25.17;;;20.20;75.00;;;;;;4973041;28;20030;-65
2021/09/25 00:15:21;;;;;;;30.13;24.83;;;20.20;75.90;;;;;;4972425;28;20061;-65
2021/09/25 00:17:47;;;;;;;31.40;24.63;;;20.20;79.00;;;;;;4973923;28;20082;-65
2021/09/25 00:20:16;;;;;;;29.05;25.50;;;20.20;81.90;;;;;;4972924;28;20109;-65
2021/09/25 00:22:42;;;;;;;28.23;24.83;;;20.00;90.00;;;;;;4973207;28;20045;-65
2021/09/25 00:25:08;;;;;;;32.42;25.02;;;20.10;85.60;;;;;;4973108;28;20062;-64
2021/09/25 00:27:34;;;;;;;29.25;25.30;;;20.20;89.20;;;;;;4971557;28;20031;-64
2021/09/25 00:30:00;;;;;;;33.05;27.20;;;20.20;83.70;;;;;;4970710;28;20105;-64
2021/09/25 00:32:26;;;;;;;33.47;28.30;;;20.20;83.90;;;;;;4973805;28;20031;-64
2021/09/25 00:34:51;;;;;;;41.20;34.15;;;20.20;84.80;;;;;;4972449;28;20480;-64
2021/09/25 00:37:17;;;;;;;37.13;30.95;;;20.20;87.00;;;;;;4974374;28;20023;-65
2021/09/25 00:39:43;;;;;;;39.03;30.13;;;20.30;90.60;;;;;;4972158;28;20053;-64
2021/09/25 00:42:09;;;;;;;35.03;30.08;;;20.30;86.60;;;;;;4973359;28;20085;-65
2021/09/25 00:44:35;;;;;;;37.03;30.75;;;20.30;87.20;;;;;;4972539;28;20027;-64
2021/09/25 00:47:01;;;;;;;38.72;30.45;;;20.30;88.90;;;;;;4973609;28;20027;-64
2021/09/25 00:49:27;;;;;;;39.80;32.38;;;20.20;90.20;;;;;;4951294;28;20064;-64
2021/09/25 00:51:52;;;;;;;39.17;32.03;;;20.30;87.50;;;;;;4944874;28;20470;-65
2021/09/25 00:54:19;;;;;;;39.95;31.05;;;20.30;85.70;;;;;;4936184;29;20038;-64
2021/09/25 00:56:47;;;;;;;38.17;31.85;;;20.30;85.30;;;;;;4956841;29;20063;-64
2021/09/25 00:59:14;;;;;;;42.38;32.35;;;20.30;85.30;;;;;;4960609;28;20440;-64
2021/09/25 01:01:41;;;;;;;40.28;32.38;;;20.40;85.30;;;;;;4957470;29;20077;-65
2021/09/25 01:04:08;;;;;;;41.17;34.45;;;20.30;84.70;;;;;;4957133;28;20031;-65
2021/09/25 01:06:33;;;;;;;40.17;33.20;;;20.40;84.60;;;;;;4957871;29;20121;-64
2021/09/25 01:08:59;;;;;;;43.22;34.38;;;20.40;84.90;;;;;;4956711;28;20054;-65
2021/09/25 01:11:26;;;;;;;44.38;32.70;;;20.40;85.00;;;;;;4957247;29;20027;-65
2021/09/25 01:13:54;;;;;;;44.58;33.13;;;20.50;82.90;;;;;;4956980;28;20019;-64
2021/09/25 01:16:21;;;;;;;38.63;32.92;;;20.50;82.40;;;;;;4957261;29;20043;-64
2021/09/25 01:18:47;;;;;;;37.40;32.30;;;20.50;81.80;;;;;;4955533;28;20466;-64
2021/09/25 01:21:13;;;;;;;41.47;33.00;;;20.40;81.90;;;;;;4955864;28;20106;-64
2021/09/25 01:23:39;;;;;;;37.53;32.58;;;20.50;81.40;;;;;;4955432;28;20027;-64
2021/09/25 01:26:05;;;;;;;38.58;32.45;;;20.40;81.30;;;;;;4957272;29;20046;-64
2021/09/25 01:28:33;;;;;;;42.58;32.30;;;20.40;81.20;;;;;;4939202;29;20031;-64
2021/09/25 01:31:00;;;;;;;39.20;33.33;;;20.50;81.30;;;;;;4957374;29;20063;-64
2021/09/25 01:33:30;;;;;;;36.67;32.88;;;20.50;81.30;;;;;;4957101;29;20027;-64
2021/09/25 01:35:56;;;;;;;38.13;33.10;;;20.40;81.90;;;;;;4956873;28;20113;-64
2021/09/25 01:38:22;;;;;;;40.03;34.13;;;20.40;81.60;;;;;;4939778;29;20450;-64
2021/09/25 01:40:49;;;;;;;39.35;34.10;;;20.50;82.00;;;;;;4955739;28;20399;-65
2021/09/25 01:43:15;;;;;;;37.67;33.47;;;20.40;81.80;;;;;;4956345;29;20485;-64
2021/09/25 01:45:42;;;;;;;40.72;34.15;;;20.30;82.20;;;;;;4956223;28;20031;-64
2021/09/25 01:48:09;;;;;;;42.25;34.50;;;20.30;82.70;;;;;;4963055;28;20050;-64
2021/09/25 01:50:35;;;;;;;37.97;33.00;;;20.30;82.80;;;;;;4975834;28;20035;-64
2021/09/25 01:53:00;;;;;;;41.55;36.03;;;20.40;83.60;;;;;;4959553;28;20023;-65
2021/09/25 01:55:26;;;;;;;37.80;33.53;;;20.40;82.90;;;;;;4974627;28;20400;-64
2021/09/25 01:57:52;;;;;;;42.97;35.75;;;20.40;83.40;;;;;;4958290;28;20037;-64
2021/09/25 02:00:19;;;;;;;40.70;35.28;;;20.30;83.50;;;;;;4975194;28;20049;-64
2021/09/25 02:02:45;;;;;;;40.65;33.65;;;20.30;83.40;;;;;;4975828;28;20019;-64
2021/09/25 02:05:15;;;;;;;44.53;36.88;;;20.40;83.70;;;;;;4972964;28;20034;-64
2021/09/25 02:07:41;;;;;;;40.80;35.92;;;20.40;83.40;;;;;;4975825;28;20031;-64
2021/09/25 02:10:07;;;;;;;43.08;37.20;;;20.30;83.50;;;;;;4965170;28;20030;-64
2021/09/25 02:12:33;;;;;;;45.42;39.97;;;20.30;83.90;;;;;;4974668;28;20090;-64
2021/09/25 02:14:59;;;;;;;46.67;40.70;;;20.30;84.10;;;;;;4974893;28;20042;-64
2021/09/25 02:17:24;;;;;;;50.28;41.42;;;20.20;84.40;;;;;;4958572;28;20101;-64
2021/09/25 02:19:50;;;;;;;50.85;42.50;;;20.20;84.70;;;;;;4973761;28;20042;-64
2021/09/25 02:22:16;;;;;;;51.03;42.42;;;20.10;84.70;;;;;;4975438;28;20026;-64
2021/09/25 02:24:42;;;;;;;52.63;43.40;;;20.20;85.20;;;;;;4974204;28;20041;-64
2021/09/25 02:27:08;;;;;;;56.28;42.55;;;20.20;85.70;;;;;;4976179;28;20035;-64
2021/09/25 02:30:23;;;;;;;50.38;43.13;;;20.10;85.40;;;;;;4957196;28;20106;-64
2021/09/25 02:32:49;;;;;;;49.30;39.33;;;20.20;84.90;;;;;;4969962;28;20034;-64
2021/09/25 02:35:18;;;;;;;49.00;41.65;;;20.10;85.40;;;;;;4974595;28;20033;-64
2021/09/25 02:37:44;;;;;;;49.03;39.72;;;20.10;85.00;;;;;;4958614;28;20511;-64
2021/09/25 02:40:11;;;;;;;47.78;40.45;;;20.20;85.20;;;;;;4956917;28;20330;-64
2021/09/25 02:42:37;;;;;;;42.88;36.60;;;20.20;85.10;;;;;;4976030;28;20023;-64
2021/09/25 02:45:04;;;;;;;48.28;38.22;;;20.20;84.30;;;;;;4974391;28;20113;-64
2021/09/25 02:47:29;;;;;;;48.35;40.20;;;20.20;84.50;;;;;;4973179;28;20042;-63
2021/09/25 02:49:55;;;;;;;50.17;38.70;;;20.20;84.50;;;;;;4948468;28;20039;-64
2021/09/25 02:52:20;;;;;;;46.20;39.20;;;20.30;84.70;;;;;;4955909;29;20102;-64
2021/09/25 02:54:46;;;;;;;46.75;38.33;;;20.30;84.10;;;;;;4954460;28;20389;-64
2021/09/25 02:57:12;;;;;;;44.22;36.92;;;20.30;84.00;;;;;;4955676;28;20174;-64
2021/09/25 02:59:37;;;;;;;44.35;36.45;;;20.40;83.90;;;;;;4954823;28;20042;-64
2021/09/25 03:02:03;;;;;;;44.33;35.65;;;20.40;83.80;;;;;;4938084;29;20041;-64
2021/09/25 03:04:28;;;;;;;43.03;35.00;;;20.40;83.60;;;;;;4955029;28;20652;-64
2021/09/25 03:06:54;;;;;;;43.75;34.85;;;20.30;84.10;;;;;;4955094;29;20038;-64
2021/09/25 03:09:22;;;;;;;41.75;34.55;;;20.30;84.00;;;;;;4954979;28;20397;-64
2021/09/25 03:11:48;;;;;;;41.65;34.88;;;20.30;84.50;;;;;;4955475;29;20039;-64
2021/09/25 03:14:14;;;;;;;40.85;35.00;;;20.30;84.60;;;;;;4946495;28;20066;-64
2021/09/25 03:16:39;;;;;;;39.15;34.13;;;20.30;84.80;;;;;;4953759;28;20067;-64
2021/09/25 03:19:05;;;;;;;39.50;33.95;;;20.20;85.10;;;;;;4954148;28;20067;-64
2021/09/25 03:21:30;;;;;;;38.97;33.70;;;20.20;85.40;;;;;;4955186;29;20094;-64
2021/09/25 03:23:56;;;;;;;40.25;34.35;;;20.20;85.70;;;;;;4953519;29;20536;-64
2021/09/25 03:26:22;;;;;;;39.42;33.42;;;20.20;86.40;;;;;;4954236;28;20035;-64
2021/09/25 03:28:47;;;;;;;39.63;34.42;;;20.20;85.80;;;;;;4952295;29;20031;-64
2021/09/25 03:31:13;;;;;;;42.08;35.17;;;20.20;86.40;;;;;;4954426;28;20366;-64
2021/09/25 03:33:38;;;;;;;44.28;34.22;;;20.20;86.00;;;;;;4955024;29;20099;-64
2021/09/25 03:36:04;;;;;;;39.30;33.50;;;20.30;86.20;;;;;;4953095;28;20086;-64
2021/09/25 03:38:31;;;;;;;40.95;34.65;;;20.20;86.20;;;;;;4955016;29;20102;-64
2021/09/25 03:40:56;;;;;;;43.20;35.38;;;20.30;86.10;;;;;;4954455;28;20385;-64
2021/09/25 03:43:22;;;;;;;41.75;34.78;;;20.20;85.80;;;;;;4937564;28;20031;-64
2021/09/25 03:45:48;;;;;;;41.95;35.15;;;20.20;86.10;;;;;;4934933;29;20114;-64
2021/09/25 03:48:13;;;;;;;41.58;35.03;;;20.10;86.70;;;;;;4960610;28;20054;-64
2021/09/25 03:50:39;;;;;;;44.08;35.00;;;20.20;87.20;;;;;;4973445;28;20030;-64
2021/09/25 03:53:05;;;;;;;42.50;35.05;;;20.20;87.50;;;;;;4974365;28;20034;-64
2021/09/25 03:55:31;;;;;;;42.35;35.72;;;20.20;87.20;;;;;;4973603;28;20031;-64
2021/09/25 03:57:56;;;;;;;42.58;34.92;;;20.10;87.60;;;;;;4974627;28;20532;-64
2021/09/25 04:00:23;;;;;;;40.78;34.78;;;20.20;88.10;;;;;;4951538;28;20039;-64
2021/09/25 04:02:52;;;;;;;39.15;33.53;;;20.30;88.90;;;;;;4972623;28;20022;-64
2021/09/25 04:05:18;;;;;;;42.75;33.83;;;20.20;89.30;;;;;;4972725;28;20109;-64
2021/09/25 04:07:45;;;;;;;41.65;34.60;;;20.20;89.50;;;;;;4956371;28;20479;-64
2021/09/25 04:10:11;;;;;;;40.20;35.08;;;20.10;90.00;;;;;;4972444;28;20434;-64
2021/09/25 04:12:37;;;;;;;40.17;35.22;;;20.20;90.20;;;;;;4973824;28;20054;-64
2021/09/25 04:15:04;;;;;;;39.97;35.17;;;20.30;90.20;;;;;;4954908;28;20077;-64
2021/09/25 04:17:29;;;;;;;42.67;33.08;;;20.20;90.20;;;;;;4972162;28;20085;-64
2021/09/25 04:19:55;;;;;;;42.15;35.53;;;20.20;90.00;;;;;;4972226;28;20031;-64
2021/09/25 04:22:20;;;;;;;42.38;34.40;;;20.20;89.70;;;;;;4956032;28;20385;-64
2021/09/25 04:24:46;;;;;;;44.75;34.47;;;20.30;89.70;;;;;;4972591;28;20027;-64
2021/09/25 04:27:12;;;;;;;45.45;34.67;;;20.20;89.80;;;;;;4956623;28;20354;-64
2021/09/25 04:29:37;;;;;;;41.60;35.58;;;20.20;89.80;;;;;;4971239;28;20038;-64
2021/09/25 04:32:03;;;;;;;43.22;36.72;;;20.20;89.90;;;;;;4956428;28;20026;-64
2021/09/25 04:34:29;;;;;;;42.42;35.85;;;20.20;89.20;;;;;;4972614;28;20029;-64
2021/09/25 04:36:55;;;;;;;46.60;37.70;;;20.20;89.00;;;;;;4973336;28;20027;-64
2021/09/25 04:39:21;;;;;;;44.30;37.47;;;20.10;88.90;;;;;;4956136;28;20069;-64
2021/09/25 04:41:47;;;;;;;45.28;36.58;;;20.00;88.80;;;;;;4973319;28;20031;-65
2021/09/25 04:44:16;;;;;;;41.35;36.45;;;20.00;88.70;;;;;;4973627;28;20157;-64
2021/09/25 04:46:42;;;;;;;46.28;36.67;;;20.10;88.70;;;;;;4972752;28;20027;-64
2021/09/25 04:49:08;;;;;;;47.78;37.08;;;20.00;89.10;;;;;;4947417;28;20055;-64
2021/09/25 04:51:35;;;;;;;46.13;37.65;;;20.00;88.70;;;;;;4952377;28;20552;-64
2021/09/25 04:54:03;;;;;;;44.13;37.75;;;20.10;88.80;;;;;;4959200;28;20032;-64
2021/09/25 04:56:29;;;;;;;47.72;38.10;;;20.10;88.50;;;;;;4951323;28;20023;-64
2021/09/25 04:58:55;;;;;;;42.67;36.28;;;20.00;88.60;;;;;;4954285;29;20035;-64
2021/09/25 05:01:20;;;;;;;42.33;37.08;;;20.00;88.20;;;;;;4935108;29;20035;-64
2021/09/25 05:03:46;;;;;;;45.78;38.28;;;20.00;88.40;;;;;;4954143;28;20031;-64
2021/09/25 05:06:11;;;;;;;44.95;36.25;;;20.00;88.30;;;;;;4953242;28;20031;-64
2021/09/25 05:08:37;;;;;;;49.08;39.70;;;20.10;88.60;;;;;;4954154;28;20114;-64
2021/09/25 05:11:02;;;;;;;45.30;37.03;;;20.00;88.60;;;;;;4952217;28;20031;-64
2021/09/25 05:13:28;;;;;;;43.35;36.30;;;20.00;88.20;;;;;;4953498;28;20027;-64
2021/09/25 05:15:54;;;;;;;41.88;35.75;;;19.90;88.10;;;;;;4951120;28;21128;-64
2021/09/25 05:18:19;;;;;;;42.75;35.40;;;20.00;88.70;;;;;;4952969;29;20042;-64
2021/09/25 05:20:45;;;;;;;43.25;36.28;;;20.00;88.40;;;;;;4949139;28;20131;-64
2021/09/25 05:23:11;;;;;;;43.10;35.38;;;19.90;88.60;;;;;;4952428;28;20016;-65
2021/09/25 05:25:36;;;;;;;40.33;34.85;;;20.00;88.20;;;;;;4950670;28;20077;-64
2021/09/25 05:28:02;;;;;;;40.22;34.20;;;20.00;88.00;;;;;;4952824;28;20472;-64
2021/09/25 05:30:29;;;;;;;45.83;36.08;;;20.10;88.20;;;;;;4952362;28;20038;-64
2021/09/25 05:32:55;;;;;;;48.25;36.63;;;20.10;88.20;;;;;;4953495;28;20026;-64
2021/09/25 05:35:21;;;;;;;44.15;37.70;;;20.10;87.60;;;;;;4952875;28;20452;-64
2021/09/25 05:37:47;;;;;;;45.13;37.38;;;20.10;87.80;;;;;;4953666;29;20031;-64
2021/09/25 05:40:20;;;;;;;47.25;38.95;;;20.00;88.20;;;;;;4951823;28;20031;-64
2021/09/25 05:42:46;;;;;;;44.85;37.47;;;20.00;89.50;;;;;;4952343;29;20413;-64
2021/09/25 05:45:11;;;;;;;49.85;39.25;;;20.10;88.50;;;;;;4941178;28;20055;-64
2021/09/25 05:47:37;;;;;;;46.65;38.72;;;20.00;88.10;;;;;;4958451;28;20058;-64
2021/09/25 05:50:04;;;;;;;47.45;38.58;;;20.10;87.60;;;;;;4975849;28;20481;-64
2021/09/25 05:52:30;;;;;;;51.17;39.60;;;20.10;88.40;;;;;;4976270;28;20049;-64
2021/09/25 05:54:55;;;;;;;52.40;39.25;;;20.10;88.10;;;;;;4974688;28;20481;-64
2021/09/25 05:57:21;;;;;;;49.20;37.75;;;20.10;88.00;;;;;;4975552;28;20027;-65
2021/09/25 05:59:46;;;;;;;44.65;38.22;;;20.10;88.30;;;;;;4975374;28;20034;-64
2021/09/25 06:02:12;;;;;;;43.05;35.75;;;20.20;88.50;;;;;;4976302;28;20030;-64
2021/09/25 06:04:38;;;;;;;42.40;34.25;;;20.20;88.50;;;;;;4976044;28;20042;-64
2021/09/25 06:07:05;;;;;;;43.85;33.90;;;20.20;88.70;;;;;;4975481;28;20158;-64
2021/09/25 06:09:31;;;;;;;41.20;35.05;;;20.10;89.20;;;;;;4973694;28;20034;-64
2021/09/25 06:11:57;;;;;;;40.45;33.05;;;20.30;88.60;;;;;;4975263;28;20043;-64
2021/09/25 06:14:22;;;;;;;39.03;32.85;;;20.30;88.50;;;;;;4975537;28;20038;-64
2021/09/25 06:16:48;;;;;;;39.33;32.45;;;20.30;88.30;;;;;;4974386;28;20582;-64
2021/09/25 06:19:14;;;;;;;37.15;31.52;;;20.20;87.90;;;;;;4958166;28;20038;-64
2021/09/25 06:21:40;;;;;;;44.53;33.35;;;20.30;87.70;;;;;;4975231;28;20038;-64
2021/09/25 06:24:06;;;;;;;37.15;31.48;;;20.20;88.30;;;;;;4975248;28;20030;-65
2021/09/25 06:26:32;;;;;;;40.75;33.10;;;20.20;87.70;;;;;;4974959;28;20472;-64
2021/09/25 06:28:57;;;;;;;37.45;30.98;;;20.30;87.70;;;;;;4975412;28;20039;-64
2021/09/25 06:31:23;;;;;;;37.08;30.77;;;20.30;88.00;;;;;;4975170;28;20023;-64
2021/09/25 06:33:48;;;;;;;39.45;31.15;;;20.30;87.60;;;;;;4975665;28;20062;-64
2021/09/25 06:36:14;;;;;;;37.83;30.88;;;20.30;87.80;;;;;;4974264;28;20116;-64
2021/09/25 06:38:40;;;;;;;36.67;29.50;;;20.30;87.80;;;;;;4973213;28;20042;-64
2021/09/25 06:41:06;;;;;;;35.38;28.13;;;20.40;88.20;;;;;;4974595;28;20145;-64
2021/09/25 06:43:32;;;;;;;37.35;28.73;;;20.40;87.90;;;;;;4956264;28;20031;-64
2021/09/25 06:45:57;;;;;;;39.58;28.38;;;20.40;87.30;;;;;;4974967;28;20027;-64
2021/09/25 06:48:23;;;;;;;36.42;29.73;;;20.40;87.10;;;;;;4966236;28;20051;-64
2021/09/25 06:50:49;;;;;;;38.05;29.55;;;20.40;86.80;;;;;;4954422;28;20035;-65
2021/09/25 06:53:15;;;;;;;37.15;29.38;;;20.30;86.30;;;;;;4954406;29;20038;-64
2021/09/25 06:55:40;;;;;;;35.42;27.75;;;20.30;85.30;;;;;;4955183;28;20464;-64
2021/09/25 06:58:06;;;;;;;35.22;28.00;;;20.50;85.40;;;;;;4955297;29;20114;-64
2021/09/25 07:00:33;;;;;;;32.58;27.27;;;20.50;84.70;;;;;;4955157;28;20058;-64
2021/09/25 07:02:59;;;;;;;31.80;25.83;;;20.50;84.70;;;;;;4955573;29;20541;-65
2021/09/25 07:05:24;;;;;;;33.53;26.90;;;20.50;84.40;;;;;;4954158;28;20178;-65
2021/09/25 07:07:50;;;;;;;34.15;25.98;;;20.50;84.10;;;;;;4955075;29;20063;-64
2021/09/25 07:10:16;;;;;;;30.83;26.92;;;20.70;84.00;;;;;;4954579;28;20086;-64
2021/09/25 07:12:42;;;;;;;40.00;28.67;;;20.70;83.80;;;;;;4954904;28;20035;-65
2021/09/25 07:15:11;;;;;;;37.45;28.20;;;20.60;83.90;;;;;;4954181;29;20030;-65
2021/09/25 07:17:38;;;;;;;31.08;24.92;;;20.60;84.00;;;;;;4954752;29;20031;-65
2021/09/25 07:20:08;;;;;;;30.25;26.42;;;20.60;84.70;;;;;;4954862;29;20055;-65
2021/09/25 07:22:34;;;;;;;29.63;25.67;;;20.70;83.10;;;;;;4954607;28;20035;-65
2021/09/25 07:25:00;;;;;;;32.40;25.83;;;20.60;83.00;;;;;;4954762;29;20042;-65
2021/09/25 07:27:26;;;;;;;29.25;25.38;;;20.70;83.40;;;;;;4936704;29;20031;-65
2021/09/25 07:29:52;;;;;;;31.30;24.98;;;20.80;82.90;;;;;;4955069;29;20508;-65
2021/09/25 07:32:18;;;;;;;29.33;25.88;;;20.80;83.10;;;;;;4953941;28;20027;-65
2021/09/25 07:34:45;;;;;;;31.17;24.60;;;20.90;82.90;;;;;;4954851;29;20031;-64
2021/09/25 07:37:11;;;;;;;27.00;23.67;;;20.80;82.90;;;;;;4953981;28;20035;-64
2021/09/25 07:39:38;;;;;;;28.02;23.55;;;20.80;83.00;;;;;;4954198;28;20078;-65
2021/09/25 07:42:04;;;;;;;28.98;24.00;;;20.90;82.70;;;;;;4952125;28;20035;-65
2021/09/25 07:44:30;;;;;;;31.38;24.08;;;20.80;82.90;;;;;;4954510;29;20422;-65
2021/09/25 07:46:55;;;;;;;28.08;23.00;;;20.90;82.50;;;;;;4953744;28;20031;-65
2021/09/25 07:49:21;;;;;;;28.00;24.92;;;21.00;82.20;;;;;;4969612;28;20108;-65
2021/09/25 07:51:46;;;;;;;28.63;23.38;;;21.10;82.50;;;;;;4973715;28;20066;-65
2021/09/25 07:54:12;;;;;;;32.88;23.15;;;21.00;82.00;;;;;;4973152;28;20404;-65
2021/09/25 07:56:38;;;;;;;26.48;23.35;;;21.00;81.80;;;;;;4955204;28;20027;-65
2021/09/25 07:59:03;;;;;;;27.85;22.42;;;21.00;82.10;;;;;;4973625;28;20418;-65
2021/09/25 08:01:29;;;;;;;28.95;24.27;;;21.20;81.70;;;;;;4972772;28;20023;-65
2021/09/25 08:03:55;;;;;;;30.55;24.92;;;21.10;81.60;;;;;;4955989;28;20033;-65
2021/09/25 08:06:21;;;;;;;30.35;25.15;;;21.20;81.90;;;;;;4973010;28;20035;-65
2021/09/25 08:08:46;;;;;;;29.17;24.20;;;21.20;81.00;;;;;;4972892;28;20038;-65
2021/09/25 08:11:12;;;;;;;28.27;23.45;;;21.20;81.40;;;;;;4970901;28;20049;-65
2021/09/25 08:13:38;;;;;;;35.25;24.55;;;21.40;80.70;;;;;;4973742;28;20034;-65
2021/09/25 08:16:04;;;;;;;26.13;22.92;;;21.50;79.70;;;;;;4971923;28;20031;-65
2021/09/25 08:18:30;;;;;;;29.27;23.30;;;21.50;80.00;;;;;;4973625;28;20039;-65
2021/09/25 08:20:56;;;;;;;33.45;24.75;;;21.60;79.40;;;;;;4972864;28;20580;-65
2021/09/25 08:23:22;;;;;;;24.77;21.05;;;21.70;79.20;;;;;;4973068;28;20122;-65
2021/09/25 08:25:48;;;;;;;28.15;22.85;;;21.50;79.00;;;;;;4971424;28;20037;-66
2021/09/25 08:28:14;;;;;;;30.02;23.02;;;21.70;78.90;;;;;;4972365;28;20417;-66
2021/09/25 08:30:40;;;;;;;24.63;21.23;;;21.70;78.60;;;;;;4972546;28;20031;-66
2021/09/25 08:33:06;;;;;;;27.83;22.45;;;21.80;78.80;;;;;;4973980;28;20027;-66
2021/09/25 08:35:32;;;;;;;28.55;22.55;;;21.90;78.60;;;;;;4974309;28;20342;-66
2021/09/25 08:37:57;;;;;;;26.80;21.08;;;21.80;78.20;;;;;;4973522;28;20066;-65
2021/09/25 08:40:23;;;;;;;26.73;21.35;;;21.90;78.60;;;;;;4971667;28;20479;-65
2021/09/25 08:42:50;;;;;;;25.70;21.05;;;21.90;78.10;;;;;;4972288;28;20026;-66
2021/09/25 08:45:17;;;;;;;26.45;20.67;;;22.00;78.60;;;;;;4972215;28;20039;-66
2021/09/25 08:47:43;;;;;;;23.95;21.27;;;22.00;78.30;;;;;;4955419;28;20189;-65
2021/09/25 08:50:11;;;;;;;24.98;20.70;;;22.10;78.00;;;;;;4969601;28;20107;-66
2021/09/25 08:52:36;;;;;;;25.23;22.15;;;22.30;77.30;;;;;;4972051;28;20026;-66
2021/09/25 08:55:03;;;;;;;23.70;20.95;;;22.30;76.80;;;;;;4966651;28;20381;-66
2021/09/25 08:57:28;;;;;;;27.05;20.67;;;22.20;76.90;;;;;;4967329;28;20520;-66
2021/09/25 08:59:54;;;;;;;27.10;22.13;;;22.30;76.60;;;;;;4972302;28;20042;-66
2021/09/25 09:02:21;;;;;;;26.30;20.55;;;22.30;76.80;;;;;;4972765;28;20030;-66
2021/09/25 09:04:53;;;;;;;26.65;20.67;;;22.40;76.30;;;;;;4955947;28;20023;-66
2021/09/25 09:07:25;;;;;;;24.90;20.38;;;22.50;76.00;;;;;;4971497;28;20038;-66
2021/09/25 09:09:52;;;;;;;25.25;21.70;;;22.50;75.70;;;;;;4944009;28;20030;-66
2021/09/25 09:12:25;;;;;;;23.17;20.27;;;22.50;75.20;;;;;;4972434;28;20030;-66
2021/09/25 09:14:52;;;;;;;23.08;20.15;;;22.60;75.20;;;;;;4972939;28;20043;-66
2021/09/25 09:17:28;;;;;;;21.67;19.48;;;22.70;74.40;;;;;;4976180;28;20121;-66
2021/09/25 09:19:54;;;;;;;23.13;20.35;;;22.60;74.70;;;;;;4976257;28;20030;-65
2021/09/25 09:22:22;;;;;;;25.17;19.38;;;22.40;73.90;;;;;;4976394;28;20037;-65
2021/09/25 09:24:50;;;;;;;26.75;20.08;;;22.50;75.10;;;;;;4977382;28;20037;-65
2021/09/25 09:27:23;;;;;;;23.75;21.17;;;22.80;74.40;;;;;;4976436;28;20541;-65
2021/09/25 09:29:48;;;;;;;24.70;21.70;;;22.80;73.30;;;;;;4976549;28;20027;-65
2021/09/25 09:32:14;;;;;;;25.95;21.83;;;23.00;73.50;;;;;;4975805;28;20038;-65
2021/09/25 09:34:42;;;;;;;24.73;21.80;;;23.10;72.70;;;;;;4976345;28;20023;-65
2021/09/25 09:37:19;;;;;;;25.80;22.27;;;23.20;71.50;;;;;;4975509;28;20031;-65
2021/09/25 09:40:00;;;;;;;22.77;20.10;;;23.20;70.90;;;;;;4976964;28;20033;-65
2021/09/25 09:42:52;;;;;;;27.35;23.30;;;23.30;70.40;;;;;;4975945;28;20152;-65
2021/09/25 09:45:31;;;;;;;25.40;21.50;;;23.20;70.30;;;;;;4976631;28;20074;-65
2021/09/25 09:47:57;;;;;;;26.38;22.65;;;23.40;70.00;;;;;;4955811;28;20063;-64
2021/09/25 09:50:23;;;;;;;25.50;22.55;;;23.40;69.60;;;;;;4957626;29;20042;-65
2021/09/25 09:52:49;;;;;;;25.15;20.80;;;23.40;69.70;;;;;;4954448;28;20023;-65
2021/09/25 09:55:25;;;;;;;26.20;21.30;;;23.50;69.20;;;;;;4956597;28;20145;-65
2021/09/25 09:58:05;;;;;;;24.38;20.58;;;23.50;69.20;;;;;;4955704;28;20039;-65
2021/09/25 10:00:35;;;;;;;26.05;21.25;;;23.60;68.80;;;;;;4957408;29;20496;-66
2021/09/25 10:03:01;;;;;;;22.90;20.38;;;23.80;69.10;;;;;;4956535;28;20101;-65
2021/09/25 10:05:27;;;;;;;23.25;20.75;;;23.80;64.10;;;;;;4957437;29;20086;-66
2021/09/25 10:07:53;;;;;;;24.65;20.05;;;23.80;58.80;;;;;;4954228;29;20119;-65
2021/09/25 10:10:20;;;;;;;23.33;20.55;;;23.90;56.60;;;;;;4957344;29;20031;-64
2021/09/25 10:12:47;;;;;;;25.08;21.23;;;23.80;52.40;;;;;;4956374;28;20028;-64
2021/09/25 10:15:13;;;;;;;25.55;21.48;;;23.90;51.20;;;;;;4956944;29;20035;-64
2021/09/25 10:17:42;;;;;;;25.10;21.23;;;23.70;51.00;;;;;;4956154;28;20030;-64
2021/09/25 10:20:08;;;;;;;26.52;23.48;;;23.90;51.40;;;;;;4956786;29;20042;-65
2021/09/25 10:22:35;;;;;;;24.42;21.85;;;23.80;51.50;;;;;;4956235;28;20392;-65
2021/09/25 10:25:08;;;;;;;25.05;21.50;;;23.90;51.30;;;;;;4956824;29;20105;-65
2021/09/25 10:27:42;;;;;;;27.90;22.17;;;23.90;51.60;;;;;;4947793;28;20338;-65
2021/09/25 10:30:10;;;;;;;23.85;21.33;;;23.90;51.20;;;;;;4939326;29;20118;-65
2021/09/25 10:32:47;;;;;;;26.73;22.77;;;23.90;51.40;;;;;;4926860;29;20071;-65
2021/09/25 10:35:20;;;;;;;22.52;20.23;;;23.90;51.00;;;;;;4937616;29;20024;-65
2021/09/25 10:37:50;;;;;;;25.60;22.38;;;24.00;50.70;;;;;;4929716;29;20056;-65
2021/09/25 10:40:23;;;;;;;23.48;20.63;;;24.10;50.80;;;;;;4949224;28;20468;-65
2021/09/25 10:42:55;;;;;;;30.48;23.20;;;24.10;50.50;;;;;;4955871;28;20063;-65
2021/09/25 10:45:37;;;;;;;26.92;22.88;;;24.10;50.40;;;;;;4956427;29;20065;-65
2021/09/25 10:48:11;;;;;;;27.25;22.45;;;24.20;50.10;;;;;;4953268;28;20047;-64
2021/09/25 10:50:49;;;;;;;25.48;22.75;;;24.20;48.90;;;;;;4956879;29;20134;-65
2021/09/25 10:53:39;;;;;;;25.52;22.90;;;24.20;49.60;;;;;;4972682;28;20110;-65
2021/09/25 10:56:06;;;;;;;25.63;22.92;;;;;;;;;;4958216;28;20388;-64
2021/09/25 10:58:37;;;;;;;29.63;23.35;;;24.60;78.70;;;;;;4966367;28;20070;-64
2021/09/25 11:01:12;;;;;;;29.20;23.02;;;24.70;53.50;;;;;;4956452;29;20437;-64
2021/09/25 11:03:46;;;;;;;26.50;23.48;;;24.50;52.30;;;;;;4975410;28;20118;-65
2021/09/25 11:06:14;;;;;;;32.17;25.98;;;24.60;52.60;;;;;;4975737;28;20523;-64
2021/09/25 11:08:52;;;;;;;28.67;25.58;;;24.60;52.10;;;;;;4973913;28;20035;-65
2021/09/25 11:11:26;;;;;;;30.75;26.33;;;24.70;51.60;;;;;;4960296;28;20027;-65
2021/09/25 11:14:00;;;;;;;28.77;25.52;;;24.80;51.60;;;;;;4974415;28;20126;-64
2021/09/25 11:16:57;;;;;;;29.83;24.55;;;24.80;51.70;;;;;;4974829;28;20026;-64
2021/09/25 11:19:23;;;;;;;30.10;26.83;;;24.90;54.70;;;;;;4975240;28;20038;-64
2021/09/25 11:21:50;;;;;;;29.95;26.73;;;24.80;56.60;;;;;;4964163;28;20034;-64
2021/09/25 11:24:19;;;;;;;32.70;29.17;;;24.90;59.10;;;;;;4975043;28;20049;-64
2021/09/25 11:26:45;;;;;;;31.30;27.95;;;25.00;83.10;;;;;;4974488;28;20035;-65
2021/09/25 11:29:11;;;;;;;31.42;27.45;;;25.00;46.90;;;;;;4975081;28;20434;-65
2021/09/25 11:31:37;;;;;;;32.22;28.67;;;24.80;47.20;;;;;;4974133;28;20059;-65
2021/09/25 11:34:22;;;;;;;30.60;27.50;;;24.70;47.10;;;;;;4975077;28;20144;-65
2021/09/25 11:36:59;;;;;;;34.15;30.55;;;24.60;46.80;;;;;;4974221;28;20077;-65
2021/09/25 11:39:51;;;;;;;35.13;27.77;;;24.40;46.90;;;;;;4973854;28;20031;-65
2021/09/25 11:42:17;;;;;;;32.05;26.38;;;24.70;47.60;;;;;;4969999;28;20046;-64
2021/09/25 11:44:55;;;;;;;35.50;29.05;;;25.00;46.90;;;;;;4974541;28;20035;-65
2021/09/25 11:47:26;;;;;;;32.42;29.13;;;25.00;46.20;;;;;;4973914;28;20034;-65
2021/09/25 11:49:53;;;;;;;32.53;29.05;;;24.80;47.10;;;;;;4957008;28;20051;-65
2021/09/25 11:52:19;;;;;;;31.13;27.30;;;24.80;46.90;;;;;;4954775;28;20027;-65
2021/09/25 11:54:45;;;;;;;31.92;28.15;;;25.00;46.50;;;;;;4952949;29;20046;-65
2021/09/25 11:57:19;;;;;;;29.30;26.17;;;25.10;46.30;;;;;;4954226;28;20039;-65
2021/09/25 11:59:46;;;;;;;33.08;28.02;;;25.20;48.00;;;;;;4954322;29;20445;-65
2021/09/25 12:02:38;;;;;;;33.13;29.73;;;25.10;50.00;;;;;;4954263;28;20019;-64
2021/09/25 12:05:06;;;;;;;34.35;30.52;;;25.20;49.10;;;;;;4953659;29;20027;-64
2021/09/25 12:07:43;;;;;;;33.47;29.92;;;25.10;49.30;;;;;;4947809;29;20034;-64
2021/09/25 12:10:22;;;;;;;33.25;29.85;;;25.00;49.10;;;;;;4953733;28;20023;-64
2021/09/25 12:12:54;;;;;;;33.90;29.92;;;25.00;49.80;;;;;;4954291;28;20031;-64
2021/09/25 12:15:36;;;;;;;33.25;29.70;;;24.90;49.40;;;;;;4955109;29;20110;-64
2021/09/25 12:18:16;;;;;;;34.50;30.33;;;24.90;49.00;;;;;;4954116;28;20165;-65
2021/09/25 12:20:44;;;;;;;34.28;29.02;;;24.90;50.10;;;;;;4954657;29;20047;-65
2021/09/25 12:23:11;;;;;;;34.15;30.58;;;25.00;49.80;;;;;;4942540;29;20027;-64
2021/09/25 12:25:40;;;;;;;35.53;31.52;;;24.90;49.80;;;;;;4954101;28;20035;-65
2021/09/25 12:28:31;;;;;;;31.65;28.05;;;24.90;50.10;;;;;;4953210;28;20031;-65
2021/09/25 12:31:07;;;;;;;34.53;28.80;;;24.90;49.00;;;;;;4938401;29;20038;-65